Time;durP1;ratioP1;P1;durP2;ratioP2;P2;SDS_P1;SDS_P2;PMS_P1;PMS_P2;Temp;Humidity;BMP_temperature;BMP_pressure;BME280_temperature;BME280_humidity;BME280_pressure;Samples;Min_cycle;Max_cycle;Signal;HPM_P1;HPM_P2
2021/06/08 05:01:14;;;;;;;;;27.50;23.75;;;;;17.70;61.13;102186.50;5387675;23;46190;-74
2021/06/08 05:03:42;;;;;;;;;28.25;25.75;;;;;17.71;60.67;102180.22;4946858;28;46115;-75
2021/06/08 05:06:16;;;;;;;;;33.50;31.00;;;;;17.71;60.74;102182.00;4944734;28;45183;-75
2021/06/08 05:08:49;;;;;;;;;30.25;30.00;;;;;17.71;60.76;102185.53;4945253;28;45432;-74
2021/06/08 05:11:18;;;;;;;;;24.25;24.25;;;;;17.70;60.73;102177.63;4948350;28;45392;-75
2021/06/08 05:13:49;;;;;;;;;27.25;24.00;;;;;17.68;60.58;102184.81;4951820;28;46123;-75
2021/06/08 05:16:16;;;;;;;;;31.00;27.50;;;;;17.69;60.64;102181.22;4957790;28;46123;-75
2021/06/08 05:18:45;;;;;;;;;28.25;26.00;;;;;17.69;60.62;102179.44;4948923;28;45246;-75
2021/06/08 05:21:12;;;;;;;;;32.25;28.75;;;;;17.69;60.97;102181.22;4950809;28;46268;-75
2021/06/08 05:23:39;;;;;;;;;27.75;25.25;;;;;17.67;60.83;102181.28;4944184;28;45326;-75
2021/06/08 05:26:05;;;;;;;;;31.00;29.50;;;;;17.73;61.05;102181.03;4948032;28;45756;-75
2021/06/08 05:28:34;;;;;;;;;19.50;17.50;;;;;17.73;60.84;102178.38;4960056;28;46806;-74
2021/06/08 05:31:00;;;;;;;;;27.75;25.25;;;;;17.76;60.77;102178.25;4959813;28;45323;-75
2021/06/08 05:33:26;;;;;;;;;28.25;25.25;;;;;17.79;60.28;102181.72;4959187;28;46197;-74
2021/06/08 05:35:54;;;;;;;;;21.00;20.25;;;;;17.82;60.57;102184.25;4958898;28;45390;-74
2021/06/08 05:38:37;;;;;;;;;31.25;28.50;;;;;17.86;60.63;102180.53;4947418;28;45255;-74
2021/06/08 05:41:10;;;;;;;;;30.50;27.75;;;;;17.91;60.55;102183.00;4950711;28;45320;-75
2021/06/08 05:43:37;;;;;;;;;32.50;30.25;;;;;17.94;60.60;102182.88;4943807;28;46051;-75
2021/06/08 05:46:03;;;;;;;;;28.75;27.25;;;;;17.93;60.46;102182.00;4957974;28;45458;-75
2021/06/08 05:48:29;;;;;;;;;31.25;29.50;;;;;17.95;60.53;102188.13;4943367;28;45342;-74
2021/06/08 05:50:56;;;;;;;;;27.50;26.75;;;;;17.98;60.48;102189.78;4939564;28;46188;-74
2021/06/08 05:53:22;;;;;;;;;29.00;27.75;;;;;18.00;60.29;102188.78;4943674;28;45235;-75
2021/06/08 05:55:50;;;;;;;;;31.75;28.25;;;;;18.07;60.64;102188.56;4957708;28;45846;-75
2021/06/08 05:58:16;;;;;;;;;38.25;31.25;;;;;18.10;60.50;102183.09;4962782;28;45488;-74
2021/06/08 06:00:42;;;;;;;;;35.00;32.00;;;;;18.13;60.06;102182.97;4962873;28;45330;-75
2021/06/08 06:03:08;;;;;;;;;32.75;29.50;;;;;18.20;60.52;102189.78;4963140;28;45827;-75
2021/06/08 06:05:37;;;;;;;;;42.50;31.75;;;;;18.18;60.16;102191.63;4963718;28;45256;-75
2021/06/08 06:08:06;;;;;;;;;42.00;34.00;;;;;18.23;59.80;102188.78;4959893;28;45419;-78
2021/06/08 06:10:32;;;;;;;;;30.25;29.00;;;;;18.30;60.46;102184.94;4953510;28;45343;-75
2021/06/08 06:13:00;;;;;;;;;27.75;25.25;;;;;18.42;59.66;102188.88;4943649;28;45333;-75
2021/06/08 06:15:27;;;;;;;;;36.75;30.50;;;;;18.54;59.83;102186.63;4947683;28;45350;-75
2021/06/08 06:17:54;;;;;;;;;39.75;33.25;;;;;18.60;58.92;102191.66;4961582;28;45380;-75
2021/06/08 06:20:20;;;;;;;;;45.00;34.00;;;;;18.62;59.24;102184.47;4955865;28;45203;-75
2021/06/08 06:22:46;;;;;;;;;34.50;31.00;;;;;18.64;59.16;102189.75;4948867;28;46435;-75
2021/06/08 06:25:13;;;;;;;;;38.75;33.00;;;;;18.66;59.27;102178.09;4959343;28;45285;-75
2021/06/08 06:27:40;;;;;;;;;40.75;34.00;;;;;18.70;58.75;102191.25;4960956;28;45356;-75
2021/06/08 06:30:08;;;;;;;;;41.00;33.50;;;;;18.69;58.95;102189.53;4960996;28;45931;-75
2021/06/08 06:32:34;;;;;;;;;32.25;31.25;;;;;18.72;59.48;102184.03;4947609;28;46143;-75
2021/06/08 06:35:10;;;;;;;;;38.50;32.75;;;;;18.82;58.78;102189.81;4961974;28;45230;-75
2021/06/08 06:37:37;;;;;;;;;35.25;33.50;;;;;18.82;58.41;102196.03;4945533;28;45601;-75
2021/06/08 06:40:06;;;;;;;;;41.00;33.75;;;;;18.84;58.53;102186.16;4960937;28;45245;-75
2021/06/08 06:42:40;;;;;;;;;39.00;34.50;;;;;18.88;58.38;102194.88;4962654;28;45194;-75
2021/06/08 06:45:08;;;;;;;;;38.50;33.50;;;;;18.88;58.17;102197.56;4962260;28;45787;-75
2021/06/08 06:47:36;;;;;;;;;38.25;32.00;;;;;18.89;58.29;102201.94;4962567;28;45177;-75
2021/06/08 06:50:04;;;;;;;;;34.00;31.75;;;;;18.91;57.75;102201.88;4954644;28;45531;-75
2021/06/08 06:52:30;;;;;;;;;31.50;30.75;;;;;18.97;58.09;102206.91;4957832;28;46749;-75
2021/06/08 06:54:56;;;;;;;;;34.25;29.50;;;;;19.03;58.00;102203.13;4962034;28;45338;-75
2021/06/08 06:57:22;;;;;;;;;40.25;31.25;;;;;19.09;57.87;102206.34;4960853;28;45456;-75
2021/06/08 06:59:47;;;;;;;;;34.25;30.75;;;;;19.11;58.16;102212.47;4961830;28;45344;-75
2021/06/08 07:02:16;;;;;;;;;31.75;24.75;;;;;19.14;58.26;102213.28;4961631;28;46222;-75
2021/06/08 07:04:43;;;;;;;;;37.25;32.50;;;;;19.19;57.53;102205.94;4961498;28;45839;-75
2021/06/08 07:07:10;;;;;;;;;34.25;32.25;;;;;19.19;57.27;102203.28;4951433;28;45393;-75
2021/06/08 07:09:37;;;;;;;;;41.00;33.50;;;;;19.25;56.75;102203.03;4958238;28;45238;-75
2021/06/08 07:12:03;;;;;;;;;33.25;31.25;;;;;19.28;57.86;102202.00;4946131;28;45341;-75
2021/06/08 07:14:30;;;;;;;;;31.00;29.50;;;;;19.32;57.15;102203.59;4943060;28;45721;-75
2021/06/08 07:16:56;;;;;;;;;40.75;32.25;;;;;19.36;57.39;102204.31;4949206;28;45278;-75
2021/06/08 07:19:24;;;;;;;;;36.25;31.00;;;;;19.37;57.07;102203.38;4959024;28;45332;-75
2021/06/08 07:21:50;;;;;;;;;35.00;32.00;;;;;19.43;56.92;102200.44;4954731;28;45474;-75
2021/06/08 07:24:16;;;;;;;;;35.75;31.25;;;;;19.45;57.18;102193.22;4950841;28;45820;-74
2021/06/08 07:26:41;;;;;;;;;32.25;30.75;;;;;19.54;57.13;102203.44;4958603;28;45287;-74
2021/06/08 07:29:12;;;;;;;;;33.75;31.25;;;;;19.60;56.15;102193.41;4948253;28;45364;-75
2021/06/08 07:32:00;;;;;;;;;37.25;33.75;;;;;19.62;56.25;102194.19;4957700;28;45773;-76
2021/06/08 07:34:31;;;;;;;;;37.50;33.00;;;;;19.67;56.90;102197.50;4954746;28;45688;-76
2021/06/08 07:36:57;;;;;;;;;37.25;30.75;;;;;19.67;56.56;102205.50;4960761;28;45378;-76
2021/06/08 07:39:28;;;;;;;;;32.50;30.50;;;;;19.72;56.64;102195.50;4960060;28;45644;-76
2021/06/08 07:42:15;;;;;;;;;31.50;30.00;;;;;19.82;56.43;102203.03;4957404;28;47876;-76
2021/06/08 07:44:49;;;;;;;;;39.25;33.50;;;;;19.86;55.99;102200.13;4958943;28;45187;-76
2021/06/08 07:47:17;;;;;;;;;34.75;31.25;;;;;19.85;55.57;102195.72;4951616;28;45400;-76
2021/06/08 07:49:44;;;;;;;;;41.75;32.75;;;;;19.90;55.55;102201.69;4958696;28;45500;-76
2021/06/08 07:52:10;;;;;;;;;39.50;30.50;;;;;19.93;55.89;102198.00;4944484;28;46206;-76
2021/06/08 07:54:37;;;;;;;;;32.50;31.50;;;;;20.00;55.59;102198.59;4956058;28;45731;-76
2021/06/08 07:57:03;;;;;;;;;39.50;32.50;;;;;20.06;55.23;102194.72;4956702;28;45317;-76
2021/06/08 07:59:28;;;;;;;;;40.25;33.25;;;;;20.07;54.79;102193.81;4948213;28;45486;-76
2021/06/08 08:01:53;;;;;;;;;42.25;34.25;;;;;20.10;54.61;102191.00;4946375;28;45526;-76
2021/06/08 08:04:20;;;;;;;;;42.50;34.25;;;;;20.12;53.73;102197.97;4961189;28;45185;-76
2021/06/08 08:06:54;;;;;;;;;37.00;27.75;;;;;20.16;54.78;102187.16;4960955;28;45483;-76
2021/06/08 08:09:20;;;;;;;;;30.50;29.25;;;;;20.24;54.68;102184.97;4959617;28;45443;-76
2021/06/08 08:11:48;;;;;;;;;30.00;27.25;;;;;20.31;54.88;102188.19;4955231;28;47492;-76
2021/06/08 08:14:17;;;;;;;;;39.50;33.25;;;;;20.34;53.63;102190.69;4948310;28;45289;-76
2021/06/08 08:16:46;;;;;;;;;32.50;30.25;;;;;20.31;53.71;102188.19;4959774;28;45627;-76
2021/06/08 08:19:14;;;;;;;;;28.25;27.50;;;;;20.32;54.43;102180.06;4959759;28;45306;-76
2021/06/08 08:21:39;;;;;;;;;38.00;32.00;;;;;20.38;54.44;102178.91;4960409;28;46405;-76
2021/06/08 08:24:05;;;;;;;;;30.50;27.75;;;;;20.41;53.72;102175.22;4959465;28;45353;-76
2021/06/08 08:26:30;;;;;;;;;33.25;30.25;;;;;20.48;54.04;102178.41;4953968;28;45510;-76
2021/06/08 08:29:00;;;;;;;;;31.00;28.00;;;;;20.40;53.37;102174.34;4957092;28;45262;-76
2021/06/08 08:31:29;;;;;;;;;31.50;28.25;;;;;20.43;53.47;102171.53;4950050;28;45167;-76
2021/06/08 08:33:56;;;;;;;;;32.25;30.00;;;;;20.54;54.03;102180.78;4958738;28;45550;-76
2021/06/08 08:36:21;;;;;;;;;26.25;21.75;;;;;20.61;53.65;102176.84;4958517;28;45400;-76
2021/06/08 08:38:47;;;;;;;;;30.50;28.25;;;;;20.71;53.15;102174.53;4960539;28;45601;-76
2021/06/08 08:41:13;;;;;;;;;34.75;31.25;;;;;20.78;53.30;102175.06;4960367;28;45181;-76
2021/06/08 08:43:42;;;;;;;;;29.75;28.25;;;;;20.86;52.46;102172.84;4960412;28;45179;-76
2021/06/08 08:46:08;;;;;;;;;27.50;25.50;;;;;20.88;52.72;102173.63;4955707;28;45520;-76
2021/06/08 08:48:34;;;;;;;;;23.00;21.25;;;;;20.97;52.54;102187.41;4956372;28;45937;-76
2021/06/08 08:50:59;;;;;;;;;28.50;27.25;;;;;21.05;52.95;102177.22;4955940;28;45408;-76
2021/06/08 08:53:26;;;;;;;;;28.50;21.75;;;;;21.09;52.81;102172.53;4958190;28;45332;-80
2021/06/08 08:55:51;;;;;;;;;39.75;34.25;;;;;21.10;52.67;102177.81;4958366;28;45389;-78
2021/06/08 08:58:18;;;;;;;;;33.50;30.00;;;;;21.08;51.39;102177.06;4956032;28;45414;-78
2021/06/08 09:00:45;;;;;;;;;30.00;27.50;;;;;21.13;51.97;102177.66;4957294;28;45644;-78
2021/06/08 09:03:14;;;;;;;;;35.50;33.00;;;;;21.22;51.51;102176.28;4955982;28;45757;-78
2021/06/08 09:05:41;;;;;;;;;37.00;31.75;;;;;21.23;49.52;102170.00;4946004;28;45274;-78
2021/06/08 09:08:08;;;;;;;;;36.50;29.25;;;;;21.29;51.40;102170.56;4948086;28;46082;-78
2021/06/08 09:10:35;;;;;;;;;32.25;31.00;;;;;21.35;50.90;102164.91;4955123;28;45317;-78
2021/06/08 09:13:01;;;;;;;;;25.25;24.25;;;;;21.40;51.83;102168.16;4952942;28;45640;-77
2021/06/08 09:15:27;;;;;;;;;33.00;29.00;;;;;21.43;51.15;102161.78;4974693;28;45436;-77
2021/06/08 09:17:57;;;;;;;;;37.25;33.25;;;;;21.48;50.26;102159.72;4947410;28;45298;-77
2021/06/08 09:20:23;;;;;;;;;30.25;28.25;;;;;21.56;51.36;102152.09;4971046;28;45405;-77
2021/06/08 09:22:58;;;;;;;;;31.50;28.25;;;;;21.65;50.89;102150.72;4959629;28;45242;-77
2021/06/08 09:25:39;;;;;;;;;26.50;22.25;;;;;21.73;50.33;102149.41;4956733;28;45214;-78
2021/06/08 09:28:22;;;;;;;;;32.50;28.75;;;;;21.78;50.40;102142.81;4959409;28;46356;-77
2021/06/08 09:30:53;;;;;;;;;21.50;20.75;;;;;21.83;49.65;102139.03;4962544;28;45260;-77
2021/06/08 09:33:23;;;;;;;;;27.00;25.75;;;;;21.91;49.07;102147.47;4962775;28;45273;-77
2021/06/08 09:35:54;;;;;;;;;27.50;24.75;;;;;21.98;47.86;102143.47;4961040;28;45343;-77
2021/06/08 09:38:19;;;;;;;;;28.50;24.50;;;;;21.99;47.99;102137.19;4962396;28;45429;-77
2021/06/08 09:40:45;;;;;;;;;23.50;20.75;;;;;21.97;47.62;102138.22;4960235;28;46409;-77
2021/06/08 09:43:13;;;;;;;;;19.50;17.00;;;;;22.05;48.78;102130.56;4962566;28;45305;-77
2021/06/08 09:45:44;;;;;;;;;23.75;21.75;;;;;22.09;48.07;102133.94;4962007;28;45339;-78
2021/06/08 09:48:11;;;;;;;;;24.00;21.25;;;;;22.15;47.28;102142.47;4957256;28;45432;-78
2021/06/08 09:50:40;;;;;;;;;23.25;22.00;;;;;22.20;46.97;102144.03;4955220;28;45392;-77
2021/06/08 09:53:25;;;;;;;;;30.75;30.00;;;;;22.24;47.95;102145.53;4961396;28;45404;-77
2021/06/08 09:55:55;;;;;;;;;24.75;23.75;;;;;22.28;47.78;102140.84;4943043;28;45374;-77
2021/06/08 09:58:25;;;;;;;;;23.00;22.50;;;;;22.34;46.95;102143.16;4955429;28;46036;-78
2021/06/08 10:01:13;;;;;;;;;23.50;21.75;;;;;22.38;47.81;102131.31;4956765;28;45493;-78
2021/06/08 10:03:46;;;;;;;;;19.00;18.75;;;;;22.51;48.92;102136.78;4962259;28;45211;-77
2021/06/08 10:06:13;;;;;;;;;20.25;17.50;;;;;22.57;47.59;102132.84;4954508;28;45396;-77
2021/06/08 10:09:12;;;;;;;;;30.50;26.75;;;;;22.57;45.59;102130.19;4960014;28;45400;-77
2021/06/08 10:11:41;;;;;;;;;25.75;23.50;;;;;22.68;44.78;102126.81;4961701;28;45968;-77
2021/06/08 10:14:18;;;;;;;;;17.00;16.75;;;;;22.74;45.57;102131.81;4942166;28;46234;-78
2021/06/08 10:16:45;;;;;;;;;25.75;24.00;;;;;22.85;46.58;102127.59;4940174;28;45413;-78
2021/06/08 10:19:12;;;;;;;;;21.75;20.75;;;;;22.82;45.08;102128.63;4961529;28;45364;-77
2021/06/08 10:21:47;;;;;;;;;23.50;20.00;;;;;22.84;44.69;102126.72;4958135;28;45419;-77
2021/06/08 10:24:16;;;;;;;;;21.50;17.25;;;;;22.89;46.42;102131.81;4955893;28;45448;-77
2021/06/08 10:26:51;;;;;;;;;20.75;18.75;;;;;22.72;46.18;102122.16;4942875;28;45326;-77
2021/06/08 10:29:19;;;;;;;;;18.25;17.25;;;;;22.53;46.70;102115.22;4950598;28;45420;-77
2021/06/08 10:31:45;;;;;;;;;16.00;15.75;;;;;22.38;47.00;102115.22;4960131;28;48294;-77
2021/06/08 10:34:11;;;;;;;;;16.00;16.00;;;;;22.34;47.92;102113.72;4963005;28;45476;-77
2021/06/08 10:36:40;;;;;;;;;15.00;15.00;;;;;22.38;48.00;102107.19;4967165;28;45799;-78
2021/06/08 10:39:08;;;;;;;;;22.00;22.00;;;;;22.46;46.35;102110.28;4960817;28;45364;-77
2021/06/08 10:41:38;;;;;;;;;19.25;18.00;;;;;22.67;46.92;102111.66;4951731;28;46275;-77
2021/06/08 10:44:05;;;;;;;;;22.75;22.00;;;;;22.75;45.03;102117.44;4949019;28;45432;-77
2021/06/08 10:46:41;;;;;;;;;26.75;21.00;;;;;22.83;44.85;102114.28;4948159;28;45393;-77
2021/06/08 10:49:06;;;;;;;;;20.50;19.25;;;;;22.90;45.45;102112.94;4951365;28;45880;-77
2021/06/08 10:51:35;;;;;;;;;22.50;21.50;;;;;22.99;44.51;102116.00;4953419;28;45603;-77
2021/06/08 10:54:02;;;;;;;;;26.50;21.75;;;;;23.06;44.97;102103.91;4962456;28;45223;-77
2021/06/08 10:56:35;;;;;;;;;21.75;21.25;;;;;23.14;45.03;102098.88;4961264;28;45668;-77
2021/06/08 10:59:05;;;;;;;;;17.50;14.75;;;;;23.21;46.34;102101.19;4956306;28;45373;-77
2021/06/08 11:01:30;;;;;;;;;13.75;13.75;;;;;23.14;45.88;102101.56;4946095;28;46173;-77
2021/06/08 11:03:56;;;;;;;;;14.25;13.00;;;;;22.99;46.49;102099.91;4955114;28;45507;-77
2021/06/08 11:06:40;;;;;;;;;13.00;12.00;;;;;22.90;46.14;102104.03;4949830;28;45331;-77
2021/06/08 11:09:12;;;;;;;;;19.00;18.50;;;;;22.81;47.43;102105.50;4953830;28;45439;-77
2021/06/08 11:11:56;;;;;;;;;22.50;20.50;;;;;22.85;45.60;102101.66;4959397;28;47743;-77
2021/06/08 11:14:31;;;;;;;;;14.25;14.25;;;;;22.98;45.26;102103.53;4959468;28;45527;-77
2021/06/08 11:17:05;;;;;;;;;18.25;17.25;;;;;23.09;44.95;102106.38;4959745;28;45479;-77
2021/06/08 11:19:52;;;;;;;;;28.75;23.75;;;;;23.21;43.93;102106.53;4961102;28;45495;-77
2021/06/08 11:22:20;;;;;;;;;25.50;24.25;;;;;23.33;45.06;102103.06;4958492;28;47464;-77
2021/06/08 11:24:49;;;;;;;;;22.75;20.00;;;;;23.50;44.31;102106.47;4961405;28;45400;-77
2021/06/08 11:27:17;;;;;;;;;24.75;21.25;;;;;23.63;43.82;102102.94;4961166;28;45423;-77
2021/06/08 11:29:48;;;;;;;;;24.75;22.75;;;;;23.75;43.33;102096.75;4961050;28;45486;-77
2021/06/08 11:32:28;;;;;;;;;22.50;20.75;;;;;23.89;41.98;102090.44;4955077;28;46245;-77
2021/06/08 11:35:17;;;;;;;;;23.50;21.50;;;;;23.98;40.40;102090.78;4954709;28;46005;-77
2021/06/08 11:37:51;;;;;;;;;17.75;15.00;;;;;24.00;43.23;102086.97;4947584;28;45278;-77
2021/06/08 11:40:34;;;;;;;;;15.75;14.75;;;;;23.76;44.06;102084.16;4952987;28;45311;-77
2021/06/08 11:43:27;;;;;;;;;16.75;15.25;;;;;23.63;44.52;102084.16;4958306;28;46562;-77
2021/06/08 11:46:11;;;;;;;;;19.75;19.00;;;;;23.76;43.48;102089.53;4957982;28;45589;-77
2021/06/08 11:48:38;;;;;;;;;21.75;18.75;;;;;23.95;42.33;102089.16;4958343;28;45371;-77
2021/06/08 11:51:24;;;;;;;;;21.25;19.25;;;;;24.10;39.34;102092.56;4958832;28;45434;-77
2021/06/08 11:54:00;;;;;;;;;19.25;15.25;;;;;24.20;41.31;102083.88;4951878;28;46059;-77
2021/06/08 11:56:55;;;;;;;;;21.75;21.25;;;;;24.19;40.57;102098.28;5401380;23;45997;-77
2021/06/08 11:59:32;;;;;;;;;20.50;20.50;;;;;24.16;40.73;102091.28;4954662;28;45657;-77
2021/06/08 12:02:02;;;;;;;;;24.25;22.25;;;;;24.19;41.22;102093.78;4984938;22;46287;-77
2021/06/08 12:04:30;;;;;;;;;22.25;20.75;;;;;24.20;41.05;102098.16;4977265;28;46305;-77
2021/06/08 12:06:58;;;;;;;;;22.25;22.25;;;;;24.24;39.68;102098.81;4977803;28;45410;-77
2021/06/08 12:09:26;;;;;;;;;14.50;14.25;;;;;24.27;41.63;102094.09;4972819;28;45423;-77
2021/06/08 12:11:53;;;;;;;;;20.75;18.00;;;;;24.26;41.76;102095.09;4979519;28;45350;-77
2021/06/08 12:14:24;;;;;;;;;16.25;14.50;;;;;24.32;42.13;102090.25;4975526;28;45438;-77
2021/06/08 12:16:56;;;;;;;;;22.00;20.25;;;;;24.27;40.73;102086.03;4978469;28;45229;-77
2021/06/08 12:19:34;;;;;;;;;29.50;23.75;;;;;24.32;41.04;102085.75;4980132;28;45316;-75
2021/06/08 12:22:21;;;;;;;;;18.25;15.50;;;;;24.31;41.88;102077.78;4971196;28;45415;-72
2021/06/08 12:24:56;;;;;;;;;22.75;20.25;;;;;24.06;43.90;102072.28;4979869;28;46353;-81
2021/06/08 12:27:33;;;;;;;;;20.50;17.50;;;;;23.97;43.02;102080.97;4978943;28;45510;-81
2021/06/08 12:30:00;;;;;;;;;20.25;19.25;;;;;23.88;42.03;102072.59;4978455;28;45369;-81
2021/06/08 12:32:25;;;;;;;;;18.00;17.75;;;;;23.89;40.85;102070.78;4969876;28;45301;-81
2021/06/08 12:34:51;;;;;;;;;16.75;15.50;;;;;23.93;41.31;102065.06;4971499;28;46018;-81
2021/06/08 12:37:27;;;;;;;;;19.25;17.75;;;;;24.00;41.05;102070.03;4977356;28;45691;-81
2021/06/08 12:39:57;;;;;;;;;18.75;14.50;;;;;24.04;41.68;102068.84;4966862;28;45965;-81
2021/06/08 12:42:24;;;;;;;;;20.25;19.00;;;;;24.09;40.90;102055.09;4959187;28;45550;-81
2021/06/08 12:44:51;;;;;;;;;23.50;23.25;;;;;24.19;40.79;102056.16;4974426;28;45405;-81
2021/06/08 12:47:19;;;;;;;;;16.25;16.00;;;;;24.31;40.65;102050.91;4967240;28;45924;-82
2021/06/08 12:49:44;;;;;;;;;15.00;15.00;;;;;24.34;41.57;102048.88;4978575;28;45332;-81
2021/06/08 12:52:21;;;;;;;;;13.25;13.25;;;;;24.11;41.98;102050.47;4980459;28;45378;-81
2021/06/08 12:54:50;;;;;;;;;16.00;14.00;;;;;23.99;42.00;102046.81;4977879;28;45162;-81
2021/06/08 12:57:24;;;;;;;;;18.50;16.50;;;;;23.92;42.98;102049.09;4969101;28;45491;-81
2021/06/08 12:59:56;;;;;;;;;16.50;15.50;;;;;24.04;42.29;102044.69;4965201;28;45216;-81
2021/06/08 13:02:23;;;;;;;;;18.25;15.25;;;;;24.25;42.04;102041.41;4966592;28;45206;-85
2021/06/08 13:04:50;;;;;;;;;24.00;22.25;;;;;24.47;39.42;102043.47;4994686;28;47448;-84
2021/06/08 13:07:20;;;;;;;;;19.50;19.00;;;;;24.63;41.16;102042.34;4968330;28;45498;-84
2021/06/08 13:09:56;;;;;;;;;20.00;17.25;;;;;24.67;40.65;102045.69;4973096;28;45416;-85
2021/06/08 13:12:22;;;;;;;;;22.25;20.25;;;;;24.64;38.73;102038.72;4978493;28;46397;-85
2021/06/08 13:15:00;;;;;;;;;17.25;17.00;;;;;24.62;39.55;102037.94;4976517;28;46106;-84
2021/06/08 13:17:27;;;;;;;;;21.25;19.00;;;;;24.64;38.75;102037.84;4969259;28;45355;-82
2021/06/08 13:19:54;;;;;;;;;17.25;16.50;;;;;24.69;39.67;102041.06;4978641;28;45491;-82
2021/06/08 13:22:23;;;;;;;;;18.50;17.50;;;;;24.79;39.61;102038.56;4973327;28;47000;-82
2021/06/08 13:24:50;;;;;;;;;16.75;16.25;;;;;24.87;39.69;102035.28;4971103;28;45303;-82
2021/06/08 13:27:25;;;;;;;;;16.75;16.75;;;;;24.93;39.99;102029.44;4965403;28;45352;-82
2021/06/08 13:29:55;;;;;;;;;21.50;17.25;;;;;25.08;39.51;102038.25;4994791;28;45297;-82
2021/06/08 13:32:24;;;;;;;;;18.75;16.75;;;;;25.11;39.38;102039.84;4979480;28;45361;-82
2021/06/08 13:35:22;;;;;;;;;14.25;14.25;;;;;25.16;39.23;102035.81;4977186;28;45625;-82
2021/06/08 13:37:57;;;;;;;;;21.75;18.25;;;;;25.17;39.12;102032.16;4971662;28;45755;-83
2021/06/08 13:40:30;;;;;;;;;19.50;19.50;;;;;25.15;38.80;102027.88;4980063;28;45273;-83
2021/06/08 13:42:59;;;;;;;;;16.00;15.50;;;;;25.11;38.52;102029.09;4979716;28;45368;-83
2021/06/08 13:45:30;;;;;;;;;19.00;16.50;;;;;25.08;38.09;102022.09;4972992;28;47554;-83
2021/06/08 13:47:57;;;;;;;;;15.25;15.25;;;;;25.13;39.57;102014.53;4960036;28;45409;-83
2021/06/08 13:50:25;;;;;;;;;19.25;16.25;;;;;25.20;37.61;102025.69;4979296;28;45431;-83
2021/06/08 13:53:02;;;;;;;;;16.75;15.75;;;;;25.27;37.99;102028.75;4979642;28;45610;-83
2021/06/08 13:55:46;;;;;;;;;16.00;16.00;;;;;25.33;36.60;102030.13;4977992;28;47037;-83
2021/06/08 14:01:05;;;;;;;;;17.50;17.00;;;;;25.33;38.12;102025.63;4979669;28;45382;-83
2021/06/08 14:03:31;;;;;;;;;15.75;15.00;;;;;25.29;37.72;102024.13;4964640;28;46118;-83
2021/06/08 14:06:16;;;;;;;;;12.75;12.75;;;;;25.22;38.31;102021.03;4978092;28;47351;-83
2021/06/08 14:08:54;;;;;;;;;12.75;12.00;;;;;25.15;38.49;102017.97;4968688;28;45578;-84
2021/06/08 14:11:51;;;;;;;;;16.00;16.00;;;;;25.17;38.16;102020.53;4961122;28;45261;-83
2021/06/08 14:14:29;;;;;;;;;13.25;13.25;;;;;25.11;38.00;102012.94;4986948;28;46162;-84
2021/06/08 14:17:05;;;;;;;;;16.00;15.00;;;;;25.20;38.42;102017.63;4975918;28;45355;-84
2021/06/08 14:19:31;;;;;;;;;13.25;13.25;;;;;25.27;37.30;102020.69;4982643;28;45477;-83
2021/06/08 14:21:56;;;;;;;;;14.50;14.50;;;;;25.25;37.43;102023.50;4981010;28;45444;-83
2021/06/08 14:24:23;;;;;;;;;13.25;11.50;;;;;25.31;37.87;102019.47;4982041;28;45635;-83
2021/06/08 14:26:48;;;;;;;;;14.75;13.50;;;;;25.40;36.77;102015.25;4981022;28;46203;-83
2021/06/08 14:29:14;;;;;;;;;10.25;10.00;;;;;25.53;37.71;102009.78;4971298;28;45163;-83
2021/06/08 14:31:39;;;;;;;;;17.00;15.00;;;;;25.68;37.29;102006.88;4975490;28;46123;-83
2021/06/08 14:34:05;;;;;;;;;14.25;12.50;;;;;25.82;37.23;102014.75;4980491;28;45448;-83
2021/06/08 14:36:32;;;;;;;;;13.50;12.25;;;;;25.91;38.03;102006.91;4966528;28;45380;-83
2021/06/08 14:38:59;;;;;;;;;8.75;8.25;;;;;26.00;38.61;102005.31;4969915;28;45491;-83
2021/06/08 14:41:25;;;;;;;;;11.25;11.25;;;;;26.07;37.95;102010.09;4978263;28;46835;-83
2021/06/08 14:43:50;;;;;;;;;14.00;14.00;;;;;26.04;37.64;102009.47;4977572;28;45264;-84
2021/06/08 14:46:16;;;;;;;;;16.00;14.25;;;;;25.98;37.17;102001.91;4971632;28;45903;-83
2021/06/08 14:48:41;;;;;;;;;16.25;14.75;;;;;25.92;36.58;102003.25;4977740;28;45187;-83
2021/06/08 14:51:07;;;;;;;;;16.25;16.25;;;;;25.88;36.61;102007.16;4980948;28;45447;-84
2021/06/08 14:53:32;;;;;;;;;14.75;14.75;;;;;25.89;36.95;102001.63;4981161;28;45561;-83
2021/06/08 14:55:59;;;;;;;;;16.75;16.25;;;;;25.97;36.75;101998.34;4977688;28;45179;-84
2021/06/08 14:58:24;;;;;;;;;13.75;13.25;;;;;26.01;37.69;102002.50;4979969;28;45507;-83
2021/06/08 15:00:50;;;;;;;;;14.50;13.75;;;;;26.05;38.30;101990.50;4979606;28;45139;-83
2021/06/08 15:03:15;;;;;;;;;14.50;14.50;;;;;26.05;38.33;102001.25;4968750;28;45486;-83
2021/06/08 15:05:41;;;;;;;;;13.50;13.50;;;;;26.10;38.08;101992.81;4980523;28;45811;-86
2021/06/08 15:08:07;;;;;;;;;17.50;14.75;;;;;26.17;37.61;101990.50;4974043;28;46038;-83
2021/06/08 15:10:32;;;;;;;;;12.75;12.75;;;;;26.17;37.08;101999.44;4979525;28;44767;-83
2021/06/08 15:12:57;;;;;;;;;17.00;17.00;;;;;26.26;36.99;102000.53;4980335;28;46263;-83
2021/06/08 15:15:23;;;;;;;;;17.75;15.75;;;;;26.23;37.51;101994.50;4965033;28;45411;-83
2021/06/08 15:17:49;;;;;;;;;13.50;13.50;;;;;26.26;36.43;101992.44;4977008;28;46611;-84
2021/06/08 15:20:15;;;;;;;;;11.00;11.00;;;;;26.20;37.11;101990.22;4980519;28;45313;-83
2021/06/08 15:22:40;;;;;;;;;11.50;10.75;;;;;26.19;36.94;101985.84;4977351;28;45304;-83
2021/06/08 15:25:07;;;;;;;;;15.00;15.00;;;;;26.18;37.58;101986.81;4969745;28;45451;-84
2021/06/08 15:27:36;;;;;;;;;13.50;13.50;;;;;26.00;37.64;101981.91;4974835;28;45331;-83
2021/06/08 15:30:03;;;;;;;;;13.50;13.50;;;;;25.79;38.23;101981.81;4993549;28;45428;-83
2021/06/08 15:32:28;;;;;;;;;14.50;13.00;;;;;25.44;37.08;101980.88;4965404;28;45329;-83
2021/06/08 15:34:53;;;;;;;;;12.00;12.00;;;;;25.37;38.49;101981.34;4964429;28;46259;-83
2021/06/08 15:37:20;;;;;;;;;13.00;12.00;;;;;25.44;38.14;101986.25;4970205;28;45760;-83
2021/06/08 15:39:46;;;;;;;;;12.25;12.25;;;;;25.46;37.67;101976.25;4976946;28;45352;-83
2021/06/08 15:42:12;;;;;;;;;11.75;11.75;;;;;25.51;37.38;101979.41;4975467;28;45223;-83
2021/06/08 15:44:38;;;;;;;;;13.75;13.75;;;;;25.57;37.14;101978.94;4978567;28;47261;-83
2021/06/08 15:47:04;;;;;;;;;12.25;11.00;;;;;25.62;37.46;101979.44;4967565;28;45971;-83
2021/06/08 15:49:29;;;;;;;;;13.25;12.00;;;;;25.62;38.66;101979.44;4961753;28;45309;-83
2021/06/08 15:51:54;;;;;;;;;12.25;12.25;;;;;25.68;37.69;101978.09;4977841;28;45383;-83
2021/06/08 15:54:20;;;;;;;;;12.25;12.25;;;;;25.78;37.17;101985.50;4975366;28;48007;-83
2021/06/08 15:56:45;;;;;;;;;11.00;9.75;;;;;25.78;36.23;101975.56;4974327;28;45549;-83
2021/06/08 15:59:11;;;;;;;;;11.50;11.50;;;;;25.83;37.76;101978.75;4979509;28;45246;-83
2021/06/08 16:01:39;;;;;;;;;15.00;15.00;;;;;25.87;37.91;101981.19;4971195;28;46110;-83
2021/06/08 16:04:05;;;;;;;;;13.00;13.00;;;;;25.90;36.60;101981.81;4985540;28;48492;-83
2021/06/08 16:06:35;;;;;;;;;15.50;14.50;;;;;25.85;37.04;101982.16;4967942;28;45409;-84
2021/06/08 16:09:01;;;;;;;;;11.25;11.25;;;;;25.82;37.05;101982.44;4963662;28;45318;-83
2021/06/08 16:11:26;;;;;;;;;12.25;11.25;;;;;25.78;37.21;101980.09;4980263;28;45344;-83
2021/06/08 16:13:55;;;;;;;;;12.25;11.75;;;;;25.79;37.49;101981.81;4980712;28;46144;-83
2021/06/08 16:16:20;;;;;;;;;14.00;14.00;;;;;25.82;38.19;101984.25;4973455;28;45297;-83
2021/06/08 16:18:45;;;;;;;;;14.25;14.25;;;;;25.82;37.38;101979.75;4966758;28;45341;-83
2021/06/08 16:21:11;;;;;;;;;12.50;12.50;;;;;25.83;37.89;101983.25;4972975;28;45333;-83
2021/06/08 16:23:36;;;;;;;;;11.50;11.50;;;;;25.83;37.06;101984.13;4971578;28;45499;-79